sensor_id;sensor_type;location;lat;lon;timestamp;pressure;altitude;pressure_sealevel;temperature;humidity
65553;BME280;52465;51.560;14.368;2023-04-06T00:01:42;100784.97;;;9.15;61.64
65553;BME280;52465;51.560;14.368;2023-04-06T00:04:08;100804.63;;;9.28;61.54
65553;BME280;52465;51.560;14.368;2023-04-06T00:06:36;100771.88;;;9.05;61.75
65553;BME280;52465;51.560;14.368;2023-04-06T00:09:01;100805.44;;;9.19;62.08
65553;BME280;52465;51.560;14.368;2023-04-06T00:11:27;100785.06;;;9.13;62.37
65553;BME280;52465;51.560;14.368;2023-04-06T00:13:56;100813.59;;;9.26;61.71
65553;BME280;52465;51.560;14.368;2023-04-06T00:16:21;100776.13;;;9.06;61.70
65553;BME280;52465;51.560;14.368;2023-04-06T00:18:46;100804.88;;;9.25;62.18
65553;BME280;52465;51.560;14.368;2023-04-06T00:21:13;100777.09;;;9.05;62.03
65553;BME280;52465;51.560;14.368;2023-04-06T00:23:39;100806.13;;;9.21;61.95
65553;BME280;52465;51.560;14.368;2023-04-06T00:26:05;100785.78;;;9.15;61.94
65553;BME280;52465;51.560;14.368;2023-04-06T00:35:35;100807.63;;;9.14;62.95
65553;BME280;52465;51.560;14.368;2023-04-06T00:38:01;100791.84;;;9.16;62.95
65553;BME280;52465;51.560;14.368;2023-04-06T00:40:26;100780.66;;;9.14;62.81
65553;BME280;52465;51.560;14.368;2023-04-06T00:49:59;100782.75;;;9.10;62.90
65553;BME280;52465;51.560;14.368;2023-04-06T00:52:26;100794.03;;;9.20;63.15
65553;BME280;52465;51.560;14.368;2023-04-06T00:54:51;100782.50;;;9.23;62.25
65553;BME280;52465;51.560;14.368;2023-04-06T00:57:17;100794.03;;;9.30;62.62
65553;BME280;52465;51.560;14.368;2023-04-06T00:59:44;100761.03;;;9.10;62.64
65553;BME280;52465;51.560;14.368;2023-04-06T01:02:13;100761.56;;;9.13;62.28
65553;BME280;52465;51.560;14.368;2023-04-06T01:04:39;100768.03;;;9.09;62.50
65553;BME280;52465;51.560;14.368;2023-04-06T01:07:04;100777.94;;;9.15;61.94
65553;BME280;52465;51.560;14.368;2023-04-06T01:09:30;100798.59;;;9.28;62.31
65553;BME280;52465;51.560;14.368;2023-04-06T01:11:57;100775.19;;;9.17;62.40
65553;BME280;52465;51.560;14.368;2023-04-06T01:14:25;100799.66;;;9.25;62.39
65553;BME280;52465;51.560;14.368;2023-04-06T01:16:51;100782.22;;;9.16;61.66
65553;BME280;52465;51.560;14.368;2023-04-06T01:19:18;100771.47;;;9.10;61.89
65553;BME280;52465;51.560;14.368;2023-04-06T01:21:55;100775.72;;;9.11;62.12
65553;BME280;52465;51.560;14.368;2023-04-06T01:24:21;100794.03;;;9.20;61.98
65553;BME280;52465;51.560;14.368;2023-04-06T01:26:47;100797.47;;;9.21;61.99
65553;BME280;52465;51.560;14.368;2023-04-06T01:29:12;100744.75;;;8.87;62.03
65553;BME280;52465;51.560;14.368;2023-04-06T01:31:38;100772.53;;;8.97;61.80
65553;BME280;52465;51.560;14.368;2023-04-06T01:34:04;100768.84;;;9.00;62.24
65553;BME280;52465;51.560;14.368;2023-04-06T01:36:33;100783.00;;;9.07;62.44
65553;BME280;52465;51.560;14.368;2023-04-06T01:38:58;100796.34;;;9.14;61.96
65553;BME280;52465;51.560;14.368;2023-04-06T01:41:23;100797.16;;;9.14;62.13
65553;BME280;52465;51.560;14.368;2023-04-06T01:43:49;100798.28;;;9.12;61.67
65553;BME280;52465;51.560;14.368;2023-04-06T01:46:15;100779.00;;;9.03;61.81
65553;BME280;52465;51.560;14.368;2023-04-06T01:48:44;100786.56;;;9.06;62.13
65553;BME280;52465;51.560;14.368;2023-04-06T01:51:12;100789.63;;;9.11;62.12
65553;BME280;52465;51.560;14.368;2023-04-06T01:53:38;100789.75;;;9.10;62.24
65553;BME280;52465;51.560;14.368;2023-04-06T01:56:08;100781.75;;;9.01;62.05
65553;BME280;52465;51.560;14.368;2023-04-06T01:58:33;100788.94;;;9.09;62.43
65553;BME280;52465;51.560;14.368;2023-04-06T02:00:59;100764.41;;;8.91;61.69
65553;BME280;52465;51.560;14.368;2023-04-06T02:03:24;100732.88;;;8.73;62.10
65553;BME280;52465;51.560;14.368;2023-04-06T02:05:50;100764.97;;;8.94;62.17
65553;BME280;52465;51.560;14.368;2023-04-06T02:08:15;100775.03;;;8.99;62.09
65553;BME280;52465;51.560;14.368;2023-04-06T02:10:41;100790.16;;;9.05;61.95
65553;BME280;52465;51.560;14.368;2023-04-06T02:13:06;100782.56;;;9.02;61.76
65553;BME280;52465;51.560;14.368;2023-04-06T02:15:32;100748.84;;;8.80;61.98
65553;BME280;52465;51.560;14.368;2023-04-06T02:17:59;100776.00;;;8.98;62.02
65553;BME280;52465;51.560;14.368;2023-04-06T02:20:25;100766.31;;;8.89;62.02
65553;BME280;52465;51.560;14.368;2023-04-06T02:22:50;100777.22;;;9.04;62.26
65553;BME280;52465;51.560;14.368;2023-04-06T02:25:16;100752.03;;;8.83;61.71
65553;BME280;52465;51.560;14.368;2023-04-06T02:27:43;100720.63;;;8.64;62.01
65553;BME280;52465;51.560;14.368;2023-04-06T02:40:06;100746.63;;;8.75;63.57
65553;BME280;52465;51.560;14.368;2023-04-06T02:42:32;100752.59;;;8.87;62.80
65553;BME280;52465;51.560;14.368;2023-04-06T02:45:01;100769.41;;;9.04;62.46
65553;BME280;52465;51.560;14.368;2023-04-06T02:47:26;100756.31;;;8.94;62.44
65553;BME280;52465;51.560;14.368;2023-04-06T02:49:51;100782.84;;;9.09;62.66
65553;BME280;52465;51.560;14.368;2023-04-06T02:52:17;100780.38;;;9.07;62.30
65553;BME280;52465;51.560;14.368;2023-04-06T02:54:45;100776.13;;;9.06;62.71
65553;BME280;52465;51.560;14.368;2023-04-06T02:57:11;100750.81;;;8.87;62.41
65553;BME280;52465;51.560;14.368;2023-04-06T02:59:36;100784.94;;;9.05;62.56
65553;BME280;52465;51.560;14.368;2023-04-06T03:02:02;100779.84;;;9.04;62.13
65553;BME280;52465;51.560;14.368;2023-04-06T03:04:31;100769.38;;;8.94;62.09
65553;BME280;52465;51.560;14.368;2023-04-06T03:06:57;100761.06;;;8.79;62.06
65553;BME280;52465;51.560;14.368;2023-04-06T03:19:11;100791.63;;;8.88;63.08
65553;BME280;52465;51.560;14.368;2023-04-06T03:21:37;100750.78;;;8.78;62.96
65553;BME280;52465;51.560;14.368;2023-04-06T03:24:02;100792.34;;;9.00;62.68
65553;BME280;52465;51.560;14.368;2023-04-06T03:26:28;100782.03;;;8.98;62.19
65553;BME280;52465;51.560;14.368;2023-04-06T03:28:53;100779.09;;;8.92;62.18
65553;BME280;52465;51.560;14.368;2023-04-06T03:31:43;100791.50;;;8.99;62.20
65553;BME280;52465;51.560;14.368;2023-04-06T03:34:09;100753.63;;;8.74;62.53
65553;BME280;52465;51.560;14.368;2023-04-06T03:36:35;100774.41;;;8.86;62.53
65553;BME280;52465;51.560;14.368;2023-04-06T03:39:04;100706.00;;;8.42;62.01
65553;BME280;52465;51.560;14.368;2023-04-06T03:41:30;100758.59;;;8.78;62.13
65553;BME280;52465;51.560;14.368;2023-04-06T03:43:55;100778.56;;;8.88;62.50
65553;BME280;52465;51.560;14.368;2023-04-06T03:46:21;100799.06;;;8.93;61.82
65553;BME280;52465;51.560;14.368;2023-04-06T03:48:48;100746.56;;;8.56;62.22
65553;BME280;52465;51.560;14.368;2023-04-06T03:51:14;100782.47;;;8.73;62.19
65553;BME280;52465;51.560;14.368;2023-04-06T03:53:43;100739.94;;;8.52;62.42
65553;BME280;52465;51.560;14.368;2023-04-06T03:56:09;100777.53;;;8.70;61.88
65553;BME280;52465;51.560;14.368;2023-04-06T03:58:34;100807.53;;;8.85;62.30
65553;BME280;52465;51.560;14.368;2023-04-06T04:01:00;100812.66;;;8.87;61.93
65553;BME280;52465;51.560;14.368;2023-04-06T04:03:26;100810.03;;;8.87;62.41
65553;BME280;52465;51.560;14.368;2023-04-06T04:05:53;100808.63;;;8.83;62.00
65553;BME280;52465;51.560;14.368;2023-04-06T04:08:22;100747.88;;;8.40;62.32
65553;BME280;52465;51.560;14.368;2023-04-06T04:10:47;100772.91;;;8.53;61.68
65553;BME280;52465;51.560;14.368;2023-04-06T04:13:13;100787.97;;;8.70;61.93
65553;BME280;52465;51.560;14.368;2023-04-06T04:15:38;100795.53;;;8.73;61.84
65553;BME280;52465;51.560;14.368;2023-04-06T04:18:04;100810.81;;;8.78;62.40
65553;BME280;52465;51.560;14.368;2023-04-06T04:20:30;100777.44;;;8.51;61.93
65553;BME280;52465;51.560;14.368;2023-04-06T04:22:55;100808.34;;;8.76;62.14
65553;BME280;52465;51.560;14.368;2023-04-06T04:25:28;100821.25;;;8.78;62.22
65553;BME280;52465;51.560;14.368;2023-04-06T04:27:54;100811.88;;;8.75;62.13
65553;BME280;52465;51.560;14.368;2023-04-06T04:30:20;100816.03;;;8.78;62.16
65553;BME280;52465;51.560;14.368;2023-04-06T04:32:46;100795.91;;;8.68;62.50
65553;BME280;52465;51.560;14.368;2023-04-06T04:35:13;100809.69;;;8.70;62.15
65553;BME280;52465;51.560;14.368;2023-04-06T04:37:40;100779.47;;;8.47;61.97
65553;BME280;52465;51.560;14.368;2023-04-06T04:40:07;100780.34;;;8.47;62.11
65553;BME280;52465;51.560;14.368;2023-04-06T04:42:33;100822.16;;;8.67;62.09
65553;BME280;52465;51.560;14.368;2023-04-06T04:45:00;100799.19;;;8.61;62.21
65553;BME280;52465;51.560;14.368;2023-04-06T04:47:25;100804.13;;;8.54;61.62
65553;BME280;52465;51.560;14.368;2023-04-06T04:49:54;100827.38;;;8.67;62.03
65553;BME280;52465;51.560;14.368;2023-04-06T04:52:19;100790.88;;;8.46;61.79
65553;BME280;52465;51.560;14.368;2023-04-06T04:54:45;100738.34;;;8.09;62.06
65553;BME280;52465;51.560;14.368;2023-04-06T04:57:12;100727.72;;;8.01;62.37
65553;BME280;52465;51.560;14.368;2023-04-06T04:59:38;100803.41;;;8.52;62.55
65553;BME280;52465;51.560;14.368;2023-04-06T05:02:08;100794.63;;;8.53;62.15
65553;BME280;52465;51.560;14.368;2023-04-06T05:14:23;100831.34;;;8.61;63.29
65553;BME280;52465;51.560;14.368;2023-04-06T05:16:49;100802.72;;;8.50;62.95
65553;BME280;52465;51.560;14.368;2023-04-06T05:19:15;100792.84;;;8.54;62.79
65553;BME280;52465;51.560;14.368;2023-04-06T05:21:41;100832.34;;;8.70;63.07
65553;BME280;52465;51.560;14.368;2023-04-06T05:24:07;100835.28;;;8.77;62.41
65553;BME280;52465;51.560;14.368;2023-04-06T05:28:57;100794.44;;;8.45;62.62
65553;BME280;52465;51.560;14.368;2023-04-06T05:41:23;100827.09;;;8.60;63.03
65553;BME280;52465;51.560;14.368;2023-04-06T05:43:48;100804.38;;;8.51;62.73
65553;BME280;52465;51.560;14.368;2023-04-06T05:46:13;100822.41;;;8.64;62.92
65553;BME280;52465;51.560;14.368;2023-04-06T05:48:39;100836.91;;;8.78;62.45
65553;BME280;52465;51.560;14.368;2023-04-06T05:51:04;100837.06;;;8.76;62.49
65553;BME280;52465;51.560;14.368;2023-04-06T05:53:32;100833.63;;;8.76;62.07
65553;BME280;52465;51.560;14.368;2023-04-06T05:56:01;100839.78;;;8.74;61.93
65553;BME280;52465;51.560;14.368;2023-04-06T05:58:27;100812.09;;;8.62;62.20
65553;BME280;52465;51.560;14.368;2023-04-06T06:00:57;100813.47;;;8.57;62.30
65553;BME280;52465;51.560;14.368;2023-04-06T06:03:26;100826.81;;;8.63;62.59
65553;BME280;52465;51.560;14.368;2023-04-06T06:16:28;100849.75;;;8.60;63.25
65553;BME280;52465;51.560;14.368;2023-04-06T06:18:57;100807.50;;;8.45;62.93
65553;BME280;52465;51.560;14.368;2023-04-06T06:21:23;100850.63;;;8.70;62.75
65553;BME280;52465;51.560;14.368;2023-04-06T06:23:48;100844.56;;;8.69;62.35
65553;BME280;52465;51.560;14.368;2023-04-06T06:26:15;100848.03;;;8.70;62.01
65553;BME280;52465;51.560;14.368;2023-04-06T06:28:42;100816.59;;;8.51;62.22
65553;BME280;52465;51.560;14.368;2023-04-06T06:31:07;100820.28;;;8.48;62.36
65553;BME280;52465;51.560;14.368;2023-04-06T06:33:32;100757.69;;;8.06;62.42
65553;BME280;52465;51.560;14.368;2023-04-06T06:35:59;100821.94;;;8.49;62.46
65553;BME280;52465;51.560;14.368;2023-04-06T06:38:24;100832.09;;;8.52;62.00
65553;BME280;52465;51.560;14.368;2023-04-06T06:40:52;100831.72;;;8.57;61.82
65553;BME280;52465;51.560;14.368;2023-04-06T06:43:43;100853.88;;;8.62;62.16
65553;BME280;52465;51.560;14.368;2023-04-06T06:46:12;100793.22;;;8.28;62.01
65553;BME280;52465;51.560;14.368;2023-04-06T06:48:41;100825.91;;;8.43;61.82
65553;BME280;52465;51.560;14.368;2023-04-06T06:51:07;100860.03;;;8.61;62.09
65553;BME280;52465;51.560;14.368;2023-04-06T06:53:34;100831.25;;;8.42;62.04
65553;BME280;52465;51.560;14.368;2023-04-06T06:56:01;100843.94;;;8.56;61.56
65553;BME280;52465;51.560;14.368;2023-04-06T06:58:27;100835.94;;;8.48;61.76
65553;BME280;52465;51.560;14.368;2023-04-06T07:00:58;100856.16;;;8.56;61.63
65553;BME280;52465;51.560;14.368;2023-04-06T07:03:24;100844.22;;;8.53;61.71
65553;BME280;52465;51.560;14.368;2023-04-06T07:05:50;100797.88;;;8.25;61.87
65553;BME280;52465;51.560;14.368;2023-04-06T07:08:24;100851.78;;;8.56;61.82
65553;BME280;52465;51.560;14.368;2023-04-06T07:10:53;100849.31;;;8.55;62.31
65553;BME280;52465;51.560;14.368;2023-04-06T07:13:21;100801.44;;;8.23;61.82
65553;BME280;52465;51.560;14.368;2023-04-06T07:15:49;100852.44;;;8.48;62.00
65553;BME280;52465;51.560;14.368;2023-04-06T07:18:15;100851.91;;;8.55;62.17
65553;BME280;52465;51.560;14.368;2023-04-06T07:20:41;100857.13;;;8.55;61.70
65553;BME280;52465;51.560;14.368;2023-04-06T07:23:07;100866.75;;;8.54;61.88
65553;BME280;52465;51.560;14.368;2023-04-06T07:25:32;100836.59;;;8.29;61.98
65553;BME280;52465;51.560;14.368;2023-04-06T07:27:58;100850.44;;;8.41;62.16
65553;BME280;52465;51.560;14.368;2023-04-06T07:30:24;100850.72;;;8.38;62.45
65553;BME280;52465;51.560;14.368;2023-04-06T07:32:54;100865.34;;;8.50;61.87
65553;BME280;52465;51.560;14.368;2023-04-06T07:35:27;100864.66;;;8.48;61.68
65553;BME280;52465;51.560;14.368;2023-04-06T07:37:55;100855.56;;;8.42;61.68
65553;BME280;52465;51.560;14.368;2023-04-06T07:40:22;100858.28;;;8.41;61.47
65553;BME280;52465;51.560;14.368;2023-04-06T07:42:47;100867.00;;;8.51;61.96
65553;BME280;52465;51.560;14.368;2023-04-06T07:45:16;100866.16;;;8.51;61.83
65553;BME280;52465;51.560;14.368;2023-04-06T07:47:42;100819.38;;;8.17;61.96
65553;BME280;52465;51.560;14.368;2023-04-06T07:50:10;100842.41;;;8.33;61.57
65553;BME280;52465;51.560;14.368;2023-04-06T07:53:25;100870.56;;;8.50;62.24
65553;BME280;52465;51.560;14.368;2023-04-06T07:55:50;100869.72;;;8.50;61.74
65553;BME280;52465;51.560;14.368;2023-04-06T07:58:19;100855.41;;;8.44;61.90
65553;BME280;52465;51.560;14.368;2023-04-06T08:00:44;100840.75;;;8.32;62.31
65553;BME280;52465;51.560;14.368;2023-04-06T08:03:09;100821.22;;;8.26;62.10
65553;BME280;52465;51.560;14.368;2023-04-06T08:05:35;100819.31;;;8.28;62.11
65553;BME280;52465;51.560;14.368;2023-04-06T08:08:00;100860.69;;;8.54;61.47
65553;BME280;52465;51.560;14.368;2023-04-06T08:10:26;100861.78;;;8.51;62.00
65553;BME280;52465;51.560;14.368;2023-04-06T08:12:52;100841.69;;;8.42;62.27
65553;BME280;52465;51.560;14.368;2023-04-06T08:15:17;100861.63;;;8.53;62.31
65553;BME280;52465;51.560;14.368;2023-04-06T08:17:43;100850.06;;;8.45;61.66
65553;BME280;52465;51.560;14.368;2023-04-06T08:20:09;100866.47;;;8.57;61.15
65553;BME280;52465;51.560;14.368;2023-04-06T08:22:36;100816.56;;;8.30;61.41
65553;BME280;52465;51.560;14.368;2023-04-06T08:25:01;100869.91;;;8.58;61.83
65553;BME280;52465;51.560;14.368;2023-04-06T08:27:26;100862.91;;;8.58;61.68
65553;BME280;52465;51.560;14.368;2023-04-06T08:29:52;100859.03;;;8.53;61.84
65553;BME280;52465;51.560;14.368;2023-04-06T08:32:17;100856.84;;;8.58;61.59
65553;BME280;52465;51.560;14.368;2023-04-06T08:34:43;100836.47;;;8.42;62.08
65553;BME280;52465;51.560;14.368;2023-04-06T08:37:09;100858.41;;;8.60;61.50
65553;BME280;52465;51.560;14.368;2023-04-06T08:39:35;100839.25;;;8.50;62.05
65553;BME280;52465;51.560;14.368;2023-04-06T08:42:01;100828.75;;;8.40;62.14
65553;BME280;52465;51.560;14.368;2023-04-06T08:44:29;100828.50;;;8.43;61.68
65553;BME280;52465;51.560;14.368;2023-04-06T08:46:55;100856.22;;;8.65;61.93
65553;BME280;52465;51.560;14.368;2023-04-06T08:49:21;100837.31;;;8.52;62.25
65553;BME280;52465;51.560;14.368;2023-04-06T08:51:49;100844.63;;;8.58;62.08
65553;BME280;52465;51.560;14.368;2023-04-06T08:54:15;100833.25;;;8.59;61.78
65553;BME280;52465;51.560;14.368;2023-04-06T08:56:42;100815.75;;;8.50;61.54
65553;BME280;52465;51.560;14.368;2023-04-06T08:59:09;100813.84;;;8.52;62.16
65553;BME280;52465;51.560;14.368;2023-04-06T09:01:39;100813.59;;;8.55;61.67
65553;BME280;52465;51.560;14.368;2023-04-06T09:04:10;100833.56;;;8.66;61.53
65553;BME280;52465;51.560;14.368;2023-04-06T09:06:37;100833.44;;;8.67;61.46
65553;BME280;52465;51.560;14.368;2023-04-06T09:09:02;100838.00;;;8.75;61.66
65553;BME280;52465;51.560;14.368;2023-04-06T09:11:28;100841.00;;;8.70;61.82
65553;BME280;52465;51.560;14.368;2023-04-06T09:13:55;100843.34;;;8.73;61.78
65553;BME280;52465;51.560;14.368;2023-04-06T09:16:22;100806.19;;;8.60;61.77
65553;BME280;52465;51.560;14.368;2023-04-06T09:18:49;100793.94;;;8.51;61.53
65553;BME280;52465;51.560;14.368;2023-04-06T09:21:19;100839.25;;;8.81;62.46
65553;BME280;52465;51.560;14.368;2023-04-06T09:23:47;100808.16;;;8.68;62.35
65553;BME280;52465;51.560;14.368;2023-04-06T09:26:17;100828.94;;;8.79;61.39
65553;BME280;52465;51.560;14.368;2023-04-06T09:28:50;100827.59;;;8.85;61.16
65553;BME280;52465;51.560;14.368;2023-04-06T09:31:23;100791.53;;;8.69;61.64
65553;BME280;52465;51.560;14.368;2023-04-06T09:33:49;100814.53;;;8.85;61.95
65553;BME280;52465;51.560;14.368;2023-04-06T09:36:15;100814.53;;;8.85;61.41
65553;BME280;52465;51.560;14.368;2023-04-06T09:39:01;100810.53;;;8.81;61.84
65553;BME280;52465;51.560;14.368;2023-04-06T09:41:29;100792.34;;;8.69;61.93
65553;BME280;52465;51.560;14.368;2023-04-06T09:44:06;100806.72;;;8.85;62.07
65553;BME280;52465;51.560;14.368;2023-04-06T09:46:35;100807.13;;;8.90;61.49
65553;BME280;52465;51.560;14.368;2023-04-06T09:49:03;100822.28;;;8.96;61.90
65553;BME280;52465;51.560;14.368;2023-04-06T09:51:31;100780.00;;;8.71;61.33
65553;BME280;52465;51.560;14.368;2023-04-06T09:53:59;100802.34;;;8.95;61.71
65553;BME280;52465;51.560;14.368;2023-04-06T09:56:39;100802.34;;;8.95;61.45
65553;BME280;52465;51.560;14.368;2023-04-06T09:59:09;100800.69;;;8.94;61.56
65553;BME280;52465;51.560;14.368;2023-04-06T10:01:37;100803.22;;;9.05;61.35
65553;BME280;52465;51.560;14.368;2023-04-06T10:07:04;100793.31;;;8.99;61.39
65553;BME280;52465;51.560;14.368;2023-04-06T10:09:32;100798.81;;;9.06;61.34
65553;BME280;52465;51.560;14.368;2023-04-06T10:12:03;100760.53;;;8.85;61.21
65553;BME280;52465;51.560;14.368;2023-04-06T10:14:30;100791.94;;;9.05;61.26
65553;BME280;52465;51.560;14.368;2023-04-06T10:16:59;100786.44;;;9.08;61.59
65553;BME280;52465;51.560;14.368;2023-04-06T10:19:39;100811.38;;;9.21;61.31
65553;BME280;52465;51.560;14.368;2023-04-06T10:22:06;100798.69;;;9.17;61.16
65553;BME280;52465;51.560;14.368;2023-04-06T10:24:33;100794.03;;;9.20;60.98
65553;BME280;52465;51.560;14.368;2023-04-06T10:27:03;100779.72;;;9.15;61.81
65553;BME280;52465;51.560;14.368;2023-04-06T10:32:09;100741.59;;;9.02;61.10
65553;BME280;52465;51.560;14.368;2023-04-06T10:36:44;100784.00;;;9.35;61.01
65553;BME280;52465;51.560;14.368;2023-04-06T10:39:10;100760.91;;;9.21;61.26
65553;BME280;52465;51.560;14.368;2023-04-06T10:41:43;100787.19;;;9.39;61.00
65553;BME280;52465;51.560;14.368;2023-04-06T10:44:26;100788.16;;;9.38;61.07
65553;BME280;52465;51.560;14.368;2023-04-06T10:47:00;100789.81;;;9.39;61.43
65553;BME280;52465;51.560;14.368;2023-04-06T10:49:26;100794.22;;;9.38;61.14
65553;BME280;52465;51.560;14.368;2023-04-06T10:51:56;100782.50;;;9.33;61.34
65553;BME280;52465;51.560;14.368;2023-04-06T10:54:24;100788.97;;;9.38;61.29
65553;BME280;52465;51.560;14.368;2023-04-06T10:56:53;100779.34;;;9.29;60.89
65553;BME280;52465;51.560;14.368;2023-04-06T10:59:19;100744.53;;;9.09;60.89
65553;BME280;52465;51.560;14.368;2023-04-06T11:01:46;100785.66;;;9.36;61.22
65553;BME280;52465;51.560;14.368;2023-04-06T11:04:15;100764.59;;;9.18;61.32
65553;BME280;52465;51.560;14.368;2023-04-06T11:06:47;100787.44;;;9.36;60.99
65553;BME280;52465;51.560;14.368;2023-04-06T11:12:23;100788.56;;;9.33;61.04
65553;BME280;52465;51.560;14.368;2023-04-06T11:14:54;100784.97;;;9.34;61.02
65553;BME280;52465;51.560;14.368;2023-04-06T11:17:25;100789.38;;;9.34;61.10
65553;BME280;52465;51.560;14.368;2023-04-06T11:19:51;100758.84;;;9.15;61.41
65553;BME280;52465;51.560;14.368;2023-04-06T11:22:16;100764.75;;;9.26;61.15
65553;BME280;52465;51.560;14.368;2023-04-06T11:24:42;100763.63;;;9.19;61.33
65553;BME280;52465;51.560;14.368;2023-04-06T11:27:10;100754.84;;;9.20;60.91
65553;BME280;52465;51.560;14.368;2023-04-06T11:29:35;100775.63;;;9.32;61.27
65553;BME280;52465;51.560;14.368;2023-04-06T11:32:05;100776.31;;;9.34;61.47
65553;BME280;52465;51.560;14.368;2023-04-06T11:34:38;100776.31;;;9.34;61.47
65553;BME280;52465;51.560;14.368;2023-04-06T11:37:09;100760.22;;;9.28;61.24
65553;BME280;52465;51.560;14.368;2023-04-06T11:39:40;100760.22;;;9.28;61.22
65553;BME280;52465;51.560;14.368;2023-04-06T11:42:06;100753.34;;;9.27;61.14
65553;BME280;52465;51.560;14.368;2023-04-06T11:44:36;100751.56;;;9.28;61.42
65553;BME280;52465;51.560;14.368;2023-04-06T11:47:04;100757.06;;;9.35;61.30
65553;BME280;52465;51.560;14.368;2023-04-06T11:49:31;100750.34;;;9.32;61.24
65553;BME280;52465;51.560;14.368;2023-04-06T11:52:00;100751.28;;;9.31;61.26
65553;BME280;52465;51.560;14.368;2023-04-06T11:54:37;100763.81;;;9.37;61.75
65553;BME280;52465;51.560;14.368;2023-04-06T11:57:04;100749.22;;;9.35;61.12
65553;BME280;52465;51.560;14.368;2023-04-06T11:59:32;100742.78;;;9.39;61.43
65553;BME280;52465;51.560;14.368;2023-04-06T12:01:58;100752.09;;;9.41;61.08
65553;BME280;52465;51.560;14.368;2023-04-06T12:04:24;100750.88;;;9.45;61.15
65553;BME280;52465;51.560;14.368;2023-04-06T12:06:53;100742.22;;;9.45;60.81
65553;BME280;52465;51.560;14.368;2023-04-06T12:09:18;100732.56;;;9.36;61.20
65553;BME280;52465;51.560;14.368;2023-04-06T12:11:44;100722.28;;;9.34;61.46
65553;BME280;52465;51.560;14.368;2023-04-06T12:14:10;100674.13;;;9.08;60.65
65553;BME280;52465;51.560;14.368;2023-04-06T12:16:36;100705.63;;;9.25;60.73
65553;BME280;52465;51.560;14.368;2023-04-06T12:19:02;100729.81;;;9.47;60.97
65553;BME280;52465;51.560;14.368;2023-04-06T12:21:28;100724.63;;;9.37;61.28
65553;BME280;52465;51.560;14.368;2023-04-06T12:23:54;100730.53;;;9.49;61.20
65553;BME280;52465;51.560;14.368;2023-04-06T12:26:20;100689.94;;;9.25;60.99
65553;BME280;52465;51.560;14.368;2023-04-06T12:28:46;100706.31;;;9.27;60.97
65553;BME280;52465;51.560;14.368;2023-04-06T12:31:16;100727.63;;;9.52;61.16
65553;BME280;52465;51.560;14.368;2023-04-06T12:33:42;100703.00;;;9.35;60.93
65553;BME280;52465;51.560;14.368;2023-04-06T12:36:14;100727.63;;;9.52;61.14
65553;BME280;52465;51.560;14.368;2023-04-06T12:38:39;100728.34;;;9.54;60.71
65553;BME280;52465;51.560;14.368;2023-04-06T12:41:06;100702.88;;;9.37;60.87
65553;BME280;52465;51.560;14.368;2023-04-06T12:43:32;100706.59;;;9.44;61.11
65553;BME280;52465;51.560;14.368;2023-04-06T12:46:00;100674.25;;;9.25;61.02
65553;BME280;52465;51.560;14.368;2023-04-06T12:48:26;100717.19;;;9.52;60.74
65553;BME280;52465;51.560;14.368;2023-04-06T12:50:58;100716.09;;;9.54;61.24
65553;BME280;52465;51.560;14.368;2023-04-06T12:53:23;100659.16;;;9.19;61.08
65553;BME280;52465;51.560;14.368;2023-04-06T12:55:49;100660.25;;;9.26;60.76
65553;BME280;52465;51.560;14.368;2023-04-06T12:58:15;100680.31;;;9.36;60.91
65553;BME280;52465;51.560;14.368;2023-04-06T13:00:42;100692.16;;;9.49;61.23
65553;BME280;52465;51.560;14.368;2023-04-06T13:03:08;100713.47;;;9.54;60.88
65553;BME280;52465;51.560;14.368;2023-04-06T13:05:43;100707.13;;;9.57;61.23
65553;BME280;52465;51.560;14.368;2023-04-06T13:08:11;100694.06;;;9.47;61.21
65553;BME280;52465;51.560;14.368;2023-04-06T13:10:50;100708.94;;;9.57;61.19
65553;BME280;52465;51.560;14.368;2023-04-06T13:13:27;100706.16;;;9.58;60.59
65553;BME280;52465;51.560;14.368;2023-04-06T13:15:54;100700.94;;;9.58;60.94
65553;BME280;52465;51.560;14.368;2023-04-06T13:18:23;100684.56;;;9.46;60.72
65553;BME280;52465;51.560;14.368;2023-04-06T13:20:49;100630.84;;;9.15;60.47
65553;BME280;52465;51.560;14.368;2023-04-06T13:23:15;100655.44;;;9.32;60.46
65553;BME280;52465;51.560;14.368;2023-04-06T13:25:41;100694.88;;;9.58;60.97
65553;BME280;52465;51.560;14.368;2023-04-06T13:28:07;100681.16;;;9.46;60.48
65553;BME280;52465;51.560;14.368;2023-04-06T13:30:52;100696.53;;;9.59;61.06
65553;BME280;52465;51.560;14.368;2023-04-06T13:33:18;100686.38;;;9.56;60.71
65553;BME280;52465;51.560;14.368;2023-04-06T13:35:46;100692.13;;;9.59;60.76
65553;BME280;52465;51.560;14.368;2023-04-06T13:38:24;100655.16;;;9.35;60.49
65553;BME280;52465;51.560;14.368;2023-04-06T13:40:50;100678.53;;;9.56;60.37
65553;BME280;52465;51.560;14.368;2023-04-06T13:43:16;100629.19;;;9.23;60.45
65553;BME280;52465;51.560;14.368;2023-04-06T13:45:52;100627.53;;;9.22;60.85
65553;BME280;52465;51.560;14.368;2023-04-06T13:48:19;100646.91;;;9.39;60.51
65553;BME280;52465;51.560;14.368;2023-04-06T13:50:44;100673.56;;;9.52;60.79
65553;BME280;52465;51.560;14.368;2023-04-06T13:53:11;100670.13;;;9.52;60.61
65553;BME280;52465;51.560;14.368;2023-04-06T13:55:37;100685.97;;;9.60;60.54
65553;BME280;52465;51.560;14.368;2023-04-06T13:58:03;100684.16;;;9.61;61.07
65553;BME280;52465;51.560;14.368;2023-04-06T14:00:31;100682.53;;;9.60;60.59
65553;BME280;52465;51.560;14.368;2023-04-06T14:02:56;100675.09;;;9.55;60.71
65553;BME280;52465;51.560;14.368;2023-04-06T14:05:22;100645.69;;;9.43;60.47
65553;BME280;52465;51.560;14.368;2023-04-06T14:07:49;100669.31;;;9.51;60.59
65553;BME280;52465;51.560;14.368;2023-04-06T14:10:15;100612.94;;;9.20;60.53